sensor_id;sensor_type;location;lat;lon;timestamp;P1;durP1;ratioP1;P2;durP2;ratioP2
635;SDS011;302;50.206;8.196;2023-08-08T00:01:59;2.40;;;2.20;;
635;SDS011;302;50.206;8.196;2023-08-08T00:04:25;2.57;;;2.37;;
635;SDS011;302;50.206;8.196;2023-08-08T00:06:50;2.70;;;2.50;;
635;SDS011;302;50.206;8.196;2023-08-08T00:09:15;2.80;;;2.60;;
635;SDS011;302;50.206;8.196;2023-08-08T00:11:41;2.97;;;2.77;;
635;SDS011;302;50.206;8.196;2023-08-08T00:14:06;2.55;;;2.33;;
635;SDS011;302;50.206;8.196;2023-08-08T00:16:31;3.00;;;2.70;;
635;SDS011;302;50.206;8.196;2023-08-08T00:18:56;3.15;;;2.95;;
635;SDS011;302;50.206;8.196;2023-08-08T00:21:21;3.37;;;3.10;;
635;SDS011;302;50.206;8.196;2023-08-08T00:23:46;3.03;;;2.80;;
635;SDS011;302;50.206;8.196;2023-08-08T00:26:12;3.10;;;2.90;;
635;SDS011;302;50.206;8.196;2023-08-08T00:28:37;3.60;;;3.40;;
635;SDS011;302;50.206;8.196;2023-08-08T00:31:02;3.67;;;3.37;;
635;SDS011;302;50.206;8.196;2023-08-08T00:33:28;3.38;;;3.17;;
635;SDS011;302;50.206;8.196;2023-08-08T00:35:53;2.97;;;2.77;;
635;SDS011;302;50.206;8.196;2023-08-08T00:38:18;3.33;;;2.93;;
635;SDS011;302;50.206;8.196;2023-08-08T00:40:43;3.23;;;3.03;;
635;SDS011;302;50.206;8.196;2023-08-08T00:43:09;3.50;;;3.20;;
635;SDS011;302;50.206;8.196;2023-08-08T00:45:34;3.65;;;2.97;;
635;SDS011;302;50.206;8.196;2023-08-08T00:47:59;3.50;;;3.20;;
635;SDS011;302;50.206;8.196;2023-08-08T00:50:24;3.50;;;3.30;;
635;SDS011;302;50.206;8.196;2023-08-08T00:52:49;3.17;;;2.97;;
635;SDS011;302;50.206;8.196;2023-08-08T00:55:15;4.40;;;3.53;;
635;SDS011;302;50.206;8.196;2023-08-08T00:57:40;3.70;;;3.40;;
635;SDS011;302;50.206;8.196;2023-08-08T01:00:06;3.53;;;3.03;;
635;SDS011;302;50.206;8.196;2023-08-08T01:02:32;3.38;;;3.17;;
635;SDS011;302;50.206;8.196;2023-08-08T01:04:58;3.83;;;3.53;;
635;SDS011;302;50.206;8.196;2023-08-08T01:10:03;3.38;;;3.10;;
635;SDS011;302;50.206;8.196;2023-08-08T01:12:32;3.15;;;2.95;;
635;SDS011;302;50.206;8.196;2023-08-08T01:14:57;3.10;;;2.90;;
635;SDS011;302;50.206;8.196;2023-08-08T01:17:23;3.40;;;3.10;;
635;SDS011;302;50.206;8.196;2023-08-08T01:19:49;3.13;;;2.92;;
635;SDS011;302;50.206;8.196;2023-08-08T01:22:17;3.43;;;3.17;;
635;SDS011;302;50.206;8.196;2023-08-08T01:24:45;3.42;;;3.22;;
635;SDS011;302;50.206;8.196;2023-08-08T01:27:10;2.80;;;2.60;;
635;SDS011;302;50.206;8.196;2023-08-08T01:29:36;3.47;;;3.17;;
635;SDS011;302;50.206;8.196;2023-08-08T01:32:02;3.33;;;3.13;;
635;SDS011;302;50.206;8.196;2023-08-08T01:34:27;3.27;;;3.07;;
635;SDS011;302;50.206;8.196;2023-08-08T01:36:57;2.97;;;2.78;;
635;SDS011;302;50.206;8.196;2023-08-08T01:39:26;3.10;;;2.90;;
635;SDS011;302;50.206;8.196;2023-08-08T01:41:51;3.15;;;2.95;;
635;SDS011;302;50.206;8.196;2023-08-08T01:44:17;3.10;;;2.90;;
635;SDS011;302;50.206;8.196;2023-08-08T01:46:43;3.33;;;3.13;;
635;SDS011;302;50.206;8.196;2023-08-08T01:49:08;3.13;;;2.90;;
635;SDS011;302;50.206;8.196;2023-08-08T01:51:33;4.67;;;3.57;;
635;SDS011;302;50.206;8.196;2023-08-08T01:53:58;2.92;;;2.72;;
635;SDS011;302;50.206;8.196;2023-08-08T01:56:23;3.83;;;3.10;;
635;SDS011;302;50.206;8.196;2023-08-08T01:58:48;3.40;;;3.00;;
635;SDS011;302;50.206;8.196;2023-08-08T02:01:14;4.18;;;3.30;;
635;SDS011;302;50.206;8.196;2023-08-08T02:03:39;3.30;;;3.00;;
635;SDS011;302;50.206;8.196;2023-08-08T02:06:04;3.63;;;2.95;;
635;SDS011;302;50.206;8.196;2023-08-08T02:08:29;3.30;;;3.10;;
635;SDS011;302;50.206;8.196;2023-08-08T02:10:54;3.43;;;3.23;;
635;SDS011;302;50.206;8.196;2023-08-08T02:13:19;4.10;;;3.78;;
635;SDS011;302;50.206;8.196;2023-08-08T02:15:44;3.15;;;2.95;;
635;SDS011;302;50.206;8.196;2023-08-08T02:18:10;3.20;;;3.00;;
635;SDS011;302;50.206;8.196;2023-08-08T02:20:36;3.72;;;3.42;;
635;SDS011;302;50.206;8.196;2023-08-08T02:23:01;2.83;;;2.63;;
635;SDS011;302;50.206;8.196;2023-08-08T02:25:26;2.95;;;2.75;;
635;SDS011;302;50.206;8.196;2023-08-08T02:27:51;3.63;;;3.28;;
635;SDS011;302;50.206;8.196;2023-08-08T02:30:16;3.05;;;2.85;;
635;SDS011;302;50.206;8.196;2023-08-08T02:32:42;3.23;;;2.93;;
635;SDS011;302;50.206;8.196;2023-08-08T02:35:07;4.00;;;3.10;;
635;SDS011;302;50.206;8.196;2023-08-08T02:37:32;4.27;;;2.90;;
635;SDS011;302;50.206;8.196;2023-08-08T02:39:57;3.40;;;3.10;;
635;SDS011;302;50.206;8.196;2023-08-08T02:42:22;2.75;;;2.55;;
635;SDS011;302;50.206;8.196;2023-08-08T02:44:48;2.80;;;2.60;;
635;SDS011;302;50.206;8.196;2023-08-08T02:47:13;3.42;;;3.22;;
635;SDS011;302;50.206;8.196;2023-08-08T02:49:38;3.15;;;2.85;;
635;SDS011;302;50.206;8.196;2023-08-08T02:52:03;2.92;;;2.72;;
635;SDS011;302;50.206;8.196;2023-08-08T02:54:28;3.00;;;2.80;;
635;SDS011;302;50.206;8.196;2023-08-08T02:56:54;2.92;;;2.70;;
635;SDS011;302;50.206;8.196;2023-08-08T02:59:19;3.20;;;2.90;;
635;SDS011;302;50.206;8.196;2023-08-08T03:01:45;2.90;;;2.70;;
635;SDS011;302;50.206;8.196;2023-08-08T03:04:11;3.60;;;3.30;;
635;SDS011;302;50.206;8.196;2023-08-08T03:06:36;3.47;;;3.27;;
635;SDS011;302;50.206;8.196;2023-08-08T03:09:02;2.45;;;2.35;;
635;SDS011;302;50.206;8.196;2023-08-08T03:11:27;3.10;;;2.90;;
635;SDS011;302;50.206;8.196;2023-08-08T03:13:52;2.77;;;2.57;;
635;SDS011;302;50.206;8.196;2023-08-08T03:16:17;2.83;;;2.50;;
635;SDS011;302;50.206;8.196;2023-08-08T03:18:42;3.20;;;3.00;;
635;SDS011;302;50.206;8.196;2023-08-08T03:21:07;2.97;;;2.70;;
635;SDS011;302;50.206;8.196;2023-08-08T03:23:33;2.90;;;2.70;;
635;SDS011;302;50.206;8.196;2023-08-08T03:25:58;2.63;;;2.42;;
635;SDS011;302;50.206;8.196;2023-08-08T03:28:23;3.13;;;2.90;;
635;SDS011;302;50.206;8.196;2023-08-08T03:30:48;2.37;;;2.17;;
635;SDS011;302;50.206;8.196;2023-08-08T03:33:13;3.40;;;2.83;;
635;SDS011;302;50.206;8.196;2023-08-08T03:35:38;2.70;;;2.50;;
635;SDS011;302;50.206;8.196;2023-08-08T03:38:03;2.57;;;2.40;;
635;SDS011;302;50.206;8.196;2023-08-08T03:40:29;3.03;;;2.73;;
635;SDS011;302;50.206;8.196;2023-08-08T03:42:54;3.13;;;2.93;;
635;SDS011;302;50.206;8.196;2023-08-08T03:45:20;2.90;;;2.53;;
635;SDS011;302;50.206;8.196;2023-08-08T03:47:45;3.10;;;2.90;;
635;SDS011;302;50.206;8.196;2023-08-08T03:50:10;2.70;;;2.50;;
635;SDS011;302;50.206;8.196;2023-08-08T03:52:36;2.80;;;2.60;;
635;SDS011;302;50.206;8.196;2023-08-08T03:55:03;2.63;;;2.40;;
635;SDS011;302;50.206;8.196;2023-08-08T03:57:28;2.60;;;2.40;;
635;SDS011;302;50.206;8.196;2023-08-08T03:59:53;2.83;;;2.60;;
635;SDS011;302;50.206;8.196;2023-08-08T04:02:18;2.90;;;2.70;;
635;SDS011;302;50.206;8.196;2023-08-08T04:04:43;3.30;;;3.10;;
635;SDS011;302;50.206;8.196;2023-08-08T04:07:09;2.60;;;2.40;;
635;SDS011;302;50.206;8.196;2023-08-08T04:09:34;3.97;;;2.97;;
635;SDS011;302;50.206;8.196;2023-08-08T04:11:59;2.38;;;2.17;;
635;SDS011;302;50.206;8.196;2023-08-08T04:14:24;2.83;;;2.63;;
635;SDS011;302;50.206;8.196;2023-08-08T04:16:49;3.63;;;3.33;;
635;SDS011;302;50.206;8.196;2023-08-08T04:19:15;3.25;;;2.55;;
635;SDS011;302;50.206;8.196;2023-08-08T04:21:40;3.23;;;3.03;;
635;SDS011;302;50.206;8.196;2023-08-08T04:24:06;3.15;;;2.88;;
635;SDS011;302;50.206;8.196;2023-08-08T04:26:32;3.03;;;2.70;;
635;SDS011;302;50.206;8.196;2023-08-08T04:28:57;4.00;;;2.80;;
635;SDS011;302;50.206;8.196;2023-08-08T04:31:23;3.40;;;3.20;;
635;SDS011;302;50.206;8.196;2023-08-08T04:33:50;3.10;;;2.80;;
635;SDS011;302;50.206;8.196;2023-08-08T04:36:15;2.87;;;2.63;;
635;SDS011;302;50.206;8.196;2023-08-08T04:38:41;2.67;;;2.47;;
635;SDS011;302;50.206;8.196;2023-08-08T04:41:06;2.58;;;2.38;;
635;SDS011;302;50.206;8.196;2023-08-08T04:43:31;2.80;;;2.60;;
635;SDS011;302;50.206;8.196;2023-08-08T04:45:56;3.33;;;2.78;;
635;SDS011;302;50.206;8.196;2023-08-08T04:48:21;2.75;;;2.55;;
635;SDS011;302;50.206;8.196;2023-08-08T04:50:47;2.60;;;2.40;;
635;SDS011;302;50.206;8.196;2023-08-08T04:53:12;2.57;;;2.37;;
635;SDS011;302;50.206;8.196;2023-08-08T04:55:37;2.93;;;2.73;;
635;SDS011;302;50.206;8.196;2023-08-08T04:58:02;2.67;;;2.47;;
635;SDS011;302;50.206;8.196;2023-08-08T05:00:27;2.70;;;2.50;;
635;SDS011;302;50.206;8.196;2023-08-08T05:02:53;2.67;;;2.47;;
635;SDS011;302;50.206;8.196;2023-08-08T05:05:18;5.55;;;3.20;;
635;SDS011;302;50.206;8.196;2023-08-08T05:07:43;3.22;;;3.03;;
635;SDS011;302;50.206;8.196;2023-08-08T05:10:08;3.28;;;2.40;;
635;SDS011;302;50.206;8.196;2023-08-08T05:12:33;2.50;;;2.30;;
635;SDS011;302;50.206;8.196;2023-08-08T05:14:58;2.70;;;2.45;;
635;SDS011;302;50.206;8.196;2023-08-08T05:17:24;2.27;;;2.10;;
635;SDS011;302;50.206;8.196;2023-08-08T05:19:49;2.80;;;2.50;;
635;SDS011;302;50.206;8.196;2023-08-08T05:22:14;3.40;;;2.83;;
635;SDS011;302;50.206;8.196;2023-08-08T05:24:39;2.53;;;2.33;;
635;SDS011;302;50.206;8.196;2023-08-08T05:27:05;2.57;;;2.37;;
635;SDS011;302;50.206;8.196;2023-08-08T05:29:30;2.80;;;2.60;;
635;SDS011;302;50.206;8.196;2023-08-08T05:31:55;2.55;;;2.35;;
635;SDS011;302;50.206;8.196;2023-08-08T05:34:20;2.57;;;2.37;;
635;SDS011;302;50.206;8.196;2023-08-08T05:36:45;2.75;;;2.28;;
635;SDS011;302;50.206;8.196;2023-08-08T05:39:11;2.65;;;1.90;;
635;SDS011;302;50.206;8.196;2023-08-08T05:41:36;2.40;;;2.20;;
635;SDS011;302;50.206;8.196;2023-08-08T05:44:01;2.27;;;2.10;;
635;SDS011;302;50.206;8.196;2023-08-08T05:46:27;3.20;;;2.13;;
635;SDS011;302;50.206;8.196;2023-08-08T05:48:52;2.55;;;2.13;;
635;SDS011;302;50.206;8.196;2023-08-08T05:51:17;1.80;;;1.70;;
635;SDS011;302;50.206;8.196;2023-08-08T05:53:42;3.35;;;2.38;;
635;SDS011;302;50.206;8.196;2023-08-08T05:56:07;2.17;;;1.97;;
635;SDS011;302;50.206;8.196;2023-08-08T05:58:33;3.35;;;2.33;;
635;SDS011;302;50.206;8.196;2023-08-08T06:00:59;3.50;;;2.17;;
635;SDS011;302;50.206;8.196;2023-08-08T06:03:24;2.77;;;1.80;;
635;SDS011;302;50.206;8.196;2023-08-08T06:05:49;2.15;;;1.75;;
635;SDS011;302;50.206;8.196;2023-08-08T06:08:14;2.80;;;1.87;;
635;SDS011;302;50.206;8.196;2023-08-08T06:10:41;2.00;;;1.80;;
635;SDS011;302;50.206;8.196;2023-08-08T06:13:06;2.00;;;1.80;;
635;SDS011;302;50.206;8.196;2023-08-08T06:15:31;1.73;;;1.60;;
635;SDS011;302;50.206;8.196;2023-08-08T06:17:57;2.50;;;1.60;;
635;SDS011;302;50.206;8.196;2023-08-08T06:20:22;2.63;;;1.97;;
635;SDS011;302;50.206;8.196;2023-08-08T06:22:48;1.83;;;1.70;;
635;SDS011;302;50.206;8.196;2023-08-08T06:25:13;1.85;;;1.65;;
635;SDS011;302;50.206;8.196;2023-08-08T06:27:39;1.73;;;1.57;;
635;SDS011;302;50.206;8.196;2023-08-08T06:30:04;2.58;;;2.10;;
635;SDS011;302;50.206;8.196;2023-08-08T06:32:29;2.00;;;1.63;;
635;SDS011;302;50.206;8.196;2023-08-08T06:34:54;5.07;;;2.10;;
635;SDS011;302;50.206;8.196;2023-08-08T06:37:20;2.27;;;2.07;;
635;SDS011;302;50.206;8.196;2023-08-08T06:39:45;1.83;;;1.73;;
635;SDS011;302;50.206;8.196;2023-08-08T06:42:10;2.70;;;1.80;;
635;SDS011;302;50.206;8.196;2023-08-08T06:44:40;2.38;;;1.80;;
635;SDS011;302;50.206;8.196;2023-08-08T06:47:06;1.55;;;1.23;;
635;SDS011;302;50.206;8.196;2023-08-08T06:49:31;2.00;;;1.67;;
635;SDS011;302;50.206;8.196;2023-08-08T06:51:56;2.23;;;1.60;;
635;SDS011;302;50.206;8.196;2023-08-08T06:54:21;3.43;;;2.60;;
635;SDS011;302;50.206;8.196;2023-08-08T06:56:46;1.63;;;1.53;;
635;SDS011;302;50.206;8.196;2023-08-08T06:59:12;1.80;;;1.70;;
635;SDS011;302;50.206;8.196;2023-08-08T07:01:37;1.93;;;1.73;;
635;SDS011;302;50.206;8.196;2023-08-08T07:04:02;3.30;;;1.70;;
635;SDS011;302;50.206;8.196;2023-08-08T07:06:28;2.03;;;1.67;;
635;SDS011;302;50.206;8.196;2023-08-08T07:08:53;2.63;;;1.73;;
635;SDS011;302;50.206;8.196;2023-08-08T07:11:18;2.05;;;1.52;;
635;SDS011;302;50.206;8.196;2023-08-08T07:13:44;1.70;;;1.60;;
635;SDS011;302;50.206;8.196;2023-08-08T07:16:09;1.90;;;1.67;;
635;SDS011;302;50.206;8.196;2023-08-08T07:18:34;2.08;;;1.88;;
635;SDS011;302;50.206;8.196;2023-08-08T07:20:59;1.92;;;1.77;;
635;SDS011;302;50.206;8.196;2023-08-08T07:23:24;2.03;;;1.48;;
635;SDS011;302;50.206;8.196;2023-08-08T07:25:49;2.95;;;2.05;;
635;SDS011;302;50.206;8.196;2023-08-08T07:28:14;3.40;;;1.60;;
635;SDS011;302;50.206;8.196;2023-08-08T07:30:40;2.33;;;1.60;;
635;SDS011;302;50.206;8.196;2023-08-08T07:33:06;2.53;;;1.87;;
635;SDS011;302;50.206;8.196;2023-08-08T07:35:32;2.08;;;1.92;;
635;SDS011;302;50.206;8.196;2023-08-08T07:37:58;2.83;;;1.90;;
635;SDS011;302;50.206;8.196;2023-08-08T07:40:23;1.60;;;1.50;;
635;SDS011;302;50.206;8.196;2023-08-08T07:42:48;1.60;;;1.50;;
635;SDS011;302;50.206;8.196;2023-08-08T07:45:13;2.63;;;1.60;;
635;SDS011;302;50.206;8.196;2023-08-08T07:47:39;3.50;;;1.80;;
635;SDS011;302;50.206;8.196;2023-08-08T07:50:04;2.22;;;1.55;;
635;SDS011;302;50.206;8.196;2023-08-08T07:52:29;2.00;;;1.80;;
635;SDS011;302;50.206;8.196;2023-08-08T07:54:54;3.10;;;1.85;;
635;SDS011;302;50.206;8.196;2023-08-08T07:57:20;2.97;;;1.98;;
635;SDS011;302;50.206;8.196;2023-08-08T07:59:45;1.90;;;1.70;;
635;SDS011;302;50.206;8.196;2023-08-08T08:02:10;1.80;;;1.35;;
635;SDS011;302;50.206;8.196;2023-08-08T08:04:35;1.90;;;1.50;;
635;SDS011;302;50.206;8.196;2023-08-08T08:07:00;1.60;;;1.47;;
635;SDS011;302;50.206;8.196;2023-08-08T08:09:25;2.87;;;2.03;;
635;SDS011;302;50.206;8.196;2023-08-08T08:11:51;2.72;;;1.98;;
635;SDS011;302;50.206;8.196;2023-08-08T08:14:16;1.67;;;1.58;;
635;SDS011;302;50.206;8.196;2023-08-08T08:16:41;5.40;;;2.23;;
635;SDS011;302;50.206;8.196;2023-08-08T08:19:06;2.10;;;1.90;;
635;SDS011;302;50.206;8.196;2023-08-08T08:21:31;2.00;;;1.80;;
635;SDS011;302;50.206;8.196;2023-08-08T08:23:56;2.25;;;2.00;;
635;SDS011;302;50.206;8.196;2023-08-08T08:26:21;1.92;;;1.60;;
635;SDS011;302;50.206;8.196;2023-08-08T08:28:47;4.37;;;2.30;;
635;SDS011;302;50.206;8.196;2023-08-08T08:31:12;2.77;;;1.80;;
635;SDS011;302;50.206;8.196;2023-08-08T08:33:37;2.17;;;1.90;;
635;SDS011;302;50.206;8.196;2023-08-08T08:36:02;1.90;;;1.70;;
635;SDS011;302;50.206;8.196;2023-08-08T08:38:27;2.70;;;1.77;;
635;SDS011;302;50.206;8.196;2023-08-08T08:40:53;2.00;;;1.47;;
635;SDS011;302;50.206;8.196;2023-08-08T08:43:19;2.03;;;1.73;;
635;SDS011;302;50.206;8.196;2023-08-08T08:45:45;1.80;;;1.67;;
635;SDS011;302;50.206;8.196;2023-08-08T08:48:14;3.45;;;2.22;;
635;SDS011;302;50.206;8.196;2023-08-08T08:50:40;2.27;;;1.80;;
635;SDS011;302;50.206;8.196;2023-08-08T08:53:06;2.03;;;1.60;;
635;SDS011;302;50.206;8.196;2023-08-08T08:55:32;1.88;;;1.77;;
635;SDS011;302;50.206;8.196;2023-08-08T08:57:57;2.53;;;1.90;;
635;SDS011;302;50.206;8.196;2023-08-08T09:00:22;2.57;;;1.70;;
635;SDS011;302;50.206;8.196;2023-08-08T09:02:48;1.90;;;1.70;;
635;SDS011;302;50.206;8.196;2023-08-08T09:05:13;2.43;;;2.23;;
635;SDS011;302;50.206;8.196;2023-08-08T09:07:40;3.75;;;1.85;;
635;SDS011;302;50.206;8.196;2023-08-08T09:10:06;1.95;;;1.75;;
635;SDS011;302;50.206;8.196;2023-08-08T09:12:31;3.53;;;2.03;;
635;SDS011;302;50.206;8.196;2023-08-08T09:14:58;1.92;;;1.77;;
635;SDS011;302;50.206;8.196;2023-08-08T09:17:26;1.73;;;1.63;;
635;SDS011;302;50.206;8.196;2023-08-08T09:19:54;1.67;;;1.40;;
635;SDS011;302;50.206;8.196;2023-08-08T09:22:20;2.15;;;1.70;;
635;SDS011;302;50.206;8.196;2023-08-08T09:24:45;1.90;;;1.80;;
635;SDS011;302;50.206;8.196;2023-08-08T09:27:11;1.87;;;1.77;;
635;SDS011;302;50.206;8.196;2023-08-08T09:29:37;1.77;;;1.63;;
635;SDS011;302;50.206;8.196;2023-08-08T09:32:03;3.40;;;2.13;;
635;SDS011;302;50.206;8.196;2023-08-08T09:34:29;2.38;;;1.70;;
635;SDS011;302;50.206;8.196;2023-08-08T09:36:54;3.92;;;1.90;;
635;SDS011;302;50.206;8.196;2023-08-08T09:39:19;2.17;;;1.80;;
635;SDS011;302;50.206;8.196;2023-08-08T09:41:45;2.47;;;2.27;;
635;SDS011;302;50.206;8.196;2023-08-08T09:44:11;2.53;;;1.50;;
635;SDS011;302;50.206;8.196;2023-08-08T09:46:36;2.87;;;2.10;;
635;SDS011;302;50.206;8.196;2023-08-08T09:49:02;3.13;;;2.13;;
635;SDS011;302;50.206;8.196;2023-08-08T09:51:27;2.00;;;1.67;;
635;SDS011;302;50.206;8.196;2023-08-08T09:53:53;2.30;;;2.10;;
635;SDS011;302;50.206;8.196;2023-08-08T09:56:19;2.90;;;2.08;;
635;SDS011;302;50.206;8.196;2023-08-08T09:58:45;2.57;;;2.17;;
635;SDS011;302;50.206;8.196;2023-08-08T10:01:11;2.17;;;1.65;;
635;SDS011;302;50.206;8.196;2023-08-08T10:03:37;2.05;;;1.85;;
635;SDS011;302;50.206;8.196;2023-08-08T10:06:03;2.17;;;1.93;;
635;SDS011;302;50.206;8.196;2023-08-08T10:08:28;2.73;;;2.10;;
635;SDS011;302;50.206;8.196;2023-08-08T10:10:53;2.10;;;1.90;;
635;SDS011;302;50.206;8.196;2023-08-08T10:13:24;1.90;;;1.80;;
635;SDS011;302;50.206;8.196;2023-08-08T10:15:50;2.85;;;1.92;;
635;SDS011;302;50.206;8.196;2023-08-08T10:18:16;1.83;;;1.63;;
635;SDS011;302;50.206;8.196;2023-08-08T10:20:44;3.00;;;2.40;;
635;SDS011;302;50.206;8.196;2023-08-08T10:23:12;2.10;;;1.38;;
635;SDS011;302;50.206;8.196;2023-08-08T10:25:43;3.30;;;1.90;;
635;SDS011;302;50.206;8.196;2023-08-08T10:28:09;2.78;;;1.92;;
635;SDS011;302;50.206;8.196;2023-08-08T10:33:16;2.65;;;2.20;;
635;SDS011;302;50.206;8.196;2023-08-08T10:35:49;3.78;;;1.90;;
635;SDS011;302;50.206;8.196;2023-08-08T10:38:15;2.28;;;2.08;;
635;SDS011;302;50.206;8.196;2023-08-08T10:40:42;2.30;;;1.73;;
635;SDS011;302;50.206;8.196;2023-08-08T10:43:13;1.80;;;1.70;;
635;SDS011;302;50.206;8.196;2023-08-08T10:45:40;2.85;;;1.60;;
635;SDS011;302;50.206;8.196;2023-08-08T10:48:08;2.85;;;1.75;;
635;SDS011;302;50.206;8.196;2023-08-08T10:50:33;1.90;;;1.60;;
635;SDS011;302;50.206;8.196;2023-08-08T10:53:03;2.25;;;2.05;;
635;SDS011;302;50.206;8.196;2023-08-08T10:55:32;3.40;;;2.30;;
635;SDS011;302;50.206;8.196;2023-08-08T10:58:02;3.20;;;2.20;;
635;SDS011;302;50.206;8.196;2023-08-08T11:00:28;2.00;;;1.80;;
635;SDS011;302;50.206;8.196;2023-08-08T11:02:54;2.10;;;1.90;;
635;SDS011;302;50.206;8.196;2023-08-08T11:05:23;3.50;;;1.85;;
635;SDS011;302;50.206;8.196;2023-08-08T11:07:48;3.20;;;2.10;;
635;SDS011;302;50.206;8.196;2023-08-08T11:10:14;1.93;;;1.70;;
635;SDS011;302;50.206;8.196;2023-08-08T11:12:39;1.87;;;1.70;;
635;SDS011;302;50.206;8.196;2023-08-08T11:15:04;2.80;;;1.70;;
635;SDS011;302;50.206;8.196;2023-08-08T11:17:30;1.80;;;1.70;;
635;SDS011;302;50.206;8.196;2023-08-08T11:19:56;1.70;;;1.57;;
635;SDS011;302;50.206;8.196;2023-08-08T11:22:22;1.60;;;1.50;;
635;SDS011;302;50.206;8.196;2023-08-08T11:24:48;1.97;;;1.73;;
635;SDS011;302;50.206;8.196;2023-08-08T11:27:14;2.43;;;1.73;;
635;SDS011;302;50.206;8.196;2023-08-08T11:29:40;3.40;;;1.63;;
635;SDS011;302;50.206;8.196;2023-08-08T11:32:05;2.20;;;1.98;;
635;SDS011;302;50.206;8.196;2023-08-08T11:34:32;2.07;;;1.50;;
635;SDS011;302;50.206;8.196;2023-08-08T11:36:57;3.20;;;1.87;;
635;SDS011;302;50.206;8.196;2023-08-08T11:39:23;2.93;;;1.80;;
635;SDS011;302;50.206;8.196;2023-08-08T11:41:48;3.73;;;1.67;;
635;SDS011;302;50.206;8.196;2023-08-08T11:44:13;1.63;;;1.50;;
635;SDS011;302;50.206;8.196;2023-08-08T11:46:45;1.67;;;1.57;;
635;SDS011;302;50.206;8.196;2023-08-08T11:49:11;3.53;;;2.03;;
635;SDS011;302;50.206;8.196;2023-08-08T11:51:38;2.50;;;1.70;;
635;SDS011;302;50.206;8.196;2023-08-08T11:54:03;2.17;;;1.97;;
635;SDS011;302;50.206;8.196;2023-08-08T11:56:34;1.73;;;1.63;;
635;SDS011;302;50.206;8.196;2023-08-08T11:59:00;1.93;;;1.83;;
635;SDS011;302;50.206;8.196;2023-08-08T12:01:26;2.03;;;1.77;;
635;SDS011;302;50.206;8.196;2023-08-08T12:03:51;2.07;;;1.57;;
635;SDS011;302;50.206;8.196;2023-08-08T12:06:16;2.13;;;1.53;;
635;SDS011;302;50.206;8.196;2023-08-08T12:08:42;2.00;;;1.80;;
635;SDS011;302;50.206;8.196;2023-08-08T12:11:08;2.70;;;1.80;;
635;SDS011;302;50.206;8.196;2023-08-08T12:13:34;2.47;;;1.40;;
635;SDS011;302;50.206;8.196;2023-08-08T12:16:01;1.70;;;1.60;;
635;SDS011;302;50.206;8.196;2023-08-08T12:18:26;3.20;;;1.90;;
635;SDS011;302;50.206;8.196;2023-08-08T12:20:52;1.80;;;1.50;;
635;SDS011;302;50.206;8.196;2023-08-08T12:23:17;3.30;;;1.50;;
635;SDS011;302;50.206;8.196;2023-08-08T12:25:42;2.40;;;1.73;;
635;SDS011;302;50.206;8.196;2023-08-08T12:28:08;3.40;;;2.07;;
635;SDS011;302;50.206;8.196;2023-08-08T12:30:33;2.95;;;1.83;;
635;SDS011;302;50.206;8.196;2023-08-08T12:32:58;4.63;;;2.07;;
635;SDS011;302;50.206;8.196;2023-08-08T12:35:23;4.30;;;1.70;;
635;SDS011;302;50.206;8.196;2023-08-08T12:37:51;2.40;;;1.80;;
635;SDS011;302;50.206;8.196;2023-08-08T12:40:17;1.60;;;1.50;;
635;SDS011;302;50.206;8.196;2023-08-08T12:42:42;2.53;;;2.00;;
635;SDS011;302;50.206;8.196;2023-08-08T12:45:07;3.20;;;2.00;;
635;SDS011;302;50.206;8.196;2023-08-08T12:47:32;1.83;;;1.60;;
635;SDS011;302;50.206;8.196;2023-08-08T12:50:01;1.90;;;1.38;;
635;SDS011;302;50.206;8.196;2023-08-08T12:52:26;2.60;;;1.70;;
635;SDS011;302;50.206;8.196;2023-08-08T12:54:51;4.63;;;2.10;;
635;SDS011;302;50.206;8.196;2023-08-08T12:57:16;1.87;;;1.40;;
635;SDS011;302;50.206;8.196;2023-08-08T12:59:41;2.42;;;1.70;;
635;SDS011;302;50.206;8.196;2023-08-08T13:02:07;2.00;;;1.40;;
635;SDS011;302;50.206;8.196;2023-08-08T13:04:32;1.80;;;1.30;;
635;SDS011;302;50.206;8.196;2023-08-08T13:06:57;1.50;;;1.40;;
635;SDS011;302;50.206;8.196;2023-08-08T13:09:22;1.87;;;1.30;;
635;SDS011;302;50.206;8.196;2023-08-08T13:11:47;1.73;;;1.60;;
635;SDS011;302;50.206;8.196;2023-08-08T13:14:13;2.03;;;1.60;;
635;SDS011;302;50.206;8.196;2023-08-08T13:16:38;1.97;;;1.77;;
635;SDS011;302;50.206;8.196;2023-08-08T13:19:03;2.73;;;1.50;;
635;SDS011;302;50.206;8.196;2023-08-08T13:21:29;3.60;;;1.40;;
635;SDS011;302;50.206;8.196;2023-08-08T13:23:54;3.35;;;1.90;;
635;SDS011;302;50.206;8.196;2023-08-08T13:26:19;1.48;;;1.25;;
635;SDS011;302;50.206;8.196;2023-08-08T13:28:44;2.05;;;1.65;;
635;SDS011;302;50.206;8.196;2023-08-08T13:31:09;2.20;;;1.57;;
635;SDS011;302;50.206;8.196;2023-08-08T13:33:35;1.70;;;1.60;;
635;SDS011;302;50.206;8.196;2023-08-08T13:36:00;2.27;;;1.30;;
635;SDS011;302;50.206;8.196;2023-08-08T13:38:25;1.70;;;1.40;;
635;SDS011;302;50.206;8.196;2023-08-08T13:40:51;2.60;;;1.60;;
635;SDS011;302;50.206;8.196;2023-08-08T13:43:16;1.60;;;1.25;;
635;SDS011;302;50.206;8.196;2023-08-08T13:45:41;1.98;;;1.30;;
635;SDS011;302;50.206;8.196;2023-08-08T13:48:06;1.80;;;1.47;;
635;SDS011;302;50.206;8.196;2023-08-08T13:50:31;1.70;;;1.60;;
635;SDS011;302;50.206;8.196;2023-08-08T13:52:57;2.00;;;1.70;;
635;SDS011;302;50.206;8.196;2023-08-08T13:55:22;2.47;;;1.70;;
635;SDS011;302;50.206;8.196;2023-08-08T13:57:47;2.00;;;1.50;;
635;SDS011;302;50.206;8.196;2023-08-08T14:00:12;1.63;;;1.25;;
635;SDS011;302;50.206;8.196;2023-08-08T14:02:39;1.83;;;1.47;;
635;SDS011;302;50.206;8.196;2023-08-08T14:05:04;1.90;;;1.40;;
635;SDS011;302;50.206;8.196;2023-08-08T14:07:31;2.80;;;1.40;;
635;SDS011;302;50.206;8.196;2023-08-08T14:09:57;3.30;;;1.63;;
635;SDS011;302;50.206;8.196;2023-08-08T14:12:22;2.37;;;1.50;;
635;SDS011;302;50.206;8.196;2023-08-08T14:14:47;2.17;;;1.40;;
635;SDS011;302;50.206;8.196;2023-08-08T14:17:12;1.63;;;1.45;;
635;SDS011;302;50.206;8.196;2023-08-08T14:19:37;2.20;;;1.30;;
635;SDS011;302;50.206;8.196;2023-08-08T14:22:02;1.95;;;1.50;;
635;SDS011;302;50.206;8.196;2023-08-08T14:24:28;2.07;;;1.40;;
635;SDS011;302;50.206;8.196;2023-08-08T14:26:53;2.10;;;1.42;;
635;SDS011;302;50.206;8.196;2023-08-08T14:29:18;2.00;;;1.50;;
635;SDS011;302;50.206;8.196;2023-08-08T14:31:43;2.03;;;1.37;;
635;SDS011;302;50.206;8.196;2023-08-08T14:34:08;2.33;;;1.80;;
635;SDS011;302;50.206;8.196;2023-08-08T14:36:33;2.33;;;1.30;;
635;SDS011;302;50.206;8.196;2023-08-08T14:38:59;2.03;;;1.90;;
635;SDS011;302;50.206;8.196;2023-08-08T14:41:24;1.45;;;1.15;;
635;SDS011;302;50.206;8.196;2023-08-08T14:43:49;2.10;;;1.63;;
635;SDS011;302;50.206;8.196;2023-08-08T14:46:14;2.17;;;1.67;;
635;SDS011;302;50.206;8.196;2023-08-08T14:48:39;12.10;;;5.03;;
635;SDS011;302;50.206;8.196;2023-08-08T14:51:04;7.00;;;3.53;;
635;SDS011;302;50.206;8.196;2023-08-08T14:53:30;2.47;;;1.73;;
635;SDS011;302;50.206;8.196;2023-08-08T14:55:55;1.73;;;1.63;;
635;SDS011;302;50.206;8.196;2023-08-08T14:58:20;2.10;;;1.57;;
635;SDS011;302;50.206;8.196;2023-08-08T15:00:45;2.07;;;1.80;;
635;SDS011;302;50.206;8.196;2023-08-08T15:03:10;1.67;;;1.57;;
635;SDS011;302;50.206;8.196;2023-08-08T15:05:36;2.63;;;1.70;;
635;SDS011;302;50.206;8.196;2023-08-08T15:08:01;2.90;;;1.77;;
635;SDS011;302;50.206;8.196;2023-08-08T15:10:26;1.57;;;1.17;;
635;SDS011;302;50.206;8.196;2023-08-08T15:12:52;2.77;;;1.70;;
635;SDS011;302;50.206;8.196;2023-08-08T15:15:17;1.77;;;1.67;;
635;SDS011;302;50.206;8.196;2023-08-08T15:17:45;1.60;;;1.30;;
635;SDS011;302;50.206;8.196;2023-08-08T15:20:10;1.63;;;1.53;;
635;SDS011;302;50.206;8.196;2023-08-08T15:22:36;1.70;;;1.60;;
635;SDS011;302;50.206;8.196;2023-08-08T15:25:01;2.53;;;1.50;;
635;SDS011;302;50.206;8.196;2023-08-08T15:27:26;1.53;;;1.43;;
635;SDS011;302;50.206;8.196;2023-08-08T15:29:51;2.90;;;1.40;;
635;SDS011;302;50.206;8.196;2023-08-08T15:32:16;3.20;;;2.00;;
635;SDS011;302;50.206;8.196;2023-08-08T15:34:41;2.60;;;1.60;;
635;SDS011;302;50.206;8.196;2023-08-08T15:37:07;1.67;;;1.57;;
635;SDS011;302;50.206;8.196;2023-08-08T15:39:32;2.43;;;1.70;;